sensor_id;sensor_type;location;lat;lon;timestamp;P1;durP1;ratioP1;P2;durP2;ratioP2
37877;SDS011;23715;53.652;8.516;2022-10-16T00:00:13;33.45;;;31.17;;
37877;SDS011;23715;53.652;8.516;2022-10-16T00:05:13;34.98;;;32.65;;
37877;SDS011;23715;53.652;8.516;2022-10-16T00:10:14;35.83;;;33.42;;
37877;SDS011;23715;53.652;8.516;2022-10-16T00:20:14;36.30;;;33.63;;
37877;SDS011;23715;53.652;8.516;2022-10-16T00:25:15;34.33;;;32.10;;
37877;SDS011;23715;53.652;8.516;2022-10-16T00:35:15;35.25;;;32.95;;
37877;SDS011;23715;53.652;8.516;2022-10-16T00:40:15;36.28;;;33.40;;
37877;SDS011;23715;53.652;8.516;2022-10-16T00:45:16;33.60;;;31.30;;
37877;SDS011;23715;53.652;8.516;2022-10-16T00:50:30;32.40;;;30.45;;
37877;SDS011;23715;53.652;8.516;2022-10-16T00:55:32;32.13;;;29.67;;
37877;SDS011;23715;53.652;8.516;2022-10-16T01:00:32;33.18;;;31.10;;
37877;SDS011;23715;53.652;8.516;2022-10-16T01:05:39;35.98;;;33.30;;
37877;SDS011;23715;53.652;8.516;2022-10-16T01:10:48;36.35;;;34.15;;
37877;SDS011;23715;53.652;8.516;2022-10-16T01:15:55;34.13;;;31.70;;
37877;SDS011;23715;53.652;8.516;2022-10-16T01:21:02;34.10;;;31.90;;
37877;SDS011;23715;53.652;8.516;2022-10-16T01:31:44;31.95;;;30.00;;
37877;SDS011;23715;53.652;8.516;2022-10-16T01:36:51;34.35;;;32.20;;
37877;SDS011;23715;53.652;8.516;2022-10-16T01:41:51;33.23;;;30.90;;
37877;SDS011;23715;53.652;8.516;2022-10-16T01:46:52;32.25;;;30.15;;
37877;SDS011;23715;53.652;8.516;2022-10-16T01:51:55;34.48;;;32.28;;
37877;SDS011;23715;53.652;8.516;2022-10-16T01:56:58;35.13;;;32.50;;
37877;SDS011;23715;53.652;8.516;2022-10-16T02:01:59;32.40;;;30.20;;
37877;SDS011;23715;53.652;8.516;2022-10-16T02:07:02;33.98;;;31.30;;
37877;SDS011;23715;53.652;8.516;2022-10-16T02:12:05;34.23;;;31.87;;
37877;SDS011;23715;53.652;8.516;2022-10-16T02:17:13;33.08;;;30.88;;
37877;SDS011;23715;53.652;8.516;2022-10-16T02:22:21;31.90;;;30.00;;
37877;SDS011;23715;53.652;8.516;2022-10-16T02:32:53;33.53;;;31.62;;
37877;SDS011;23715;53.652;8.516;2022-10-16T02:37:57;33.85;;;31.90;;
37877;SDS011;23715;53.652;8.516;2022-10-16T02:42:58;37.30;;;34.83;;
37877;SDS011;23715;53.652;8.516;2022-10-16T02:47:58;34.80;;;32.50;;
37877;SDS011;23715;53.652;8.516;2022-10-16T02:52:59;35.48;;;33.00;;
37877;SDS011;23715;53.652;8.516;2022-10-16T02:57:59;36.25;;;33.88;;
37877;SDS011;23715;53.652;8.516;2022-10-16T03:07:59;35.40;;;33.15;;
37877;SDS011;23715;53.652;8.516;2022-10-16T03:17:59;34.73;;;32.63;;
37877;SDS011;23715;53.652;8.516;2022-10-16T03:28:00;37.37;;;34.90;;
37877;SDS011;23715;53.652;8.516;2022-10-16T03:33:01;34.65;;;32.63;;
37877;SDS011;23715;53.652;8.516;2022-10-16T03:38:01;35.58;;;33.25;;
37877;SDS011;23715;53.652;8.516;2022-10-16T03:43:02;34.45;;;31.97;;
37877;SDS011;23715;53.652;8.516;2022-10-16T03:48:02;33.63;;;31.57;;
37877;SDS011;23715;53.652;8.516;2022-10-16T03:53:03;33.85;;;31.70;;
37877;SDS011;23715;53.652;8.516;2022-10-16T03:58:03;33.92;;;31.55;;
37877;SDS011;23715;53.652;8.516;2022-10-16T04:03:04;33.98;;;31.55;;
37877;SDS011;23715;53.652;8.516;2022-10-16T04:08:04;37.13;;;34.43;;
37877;SDS011;23715;53.652;8.516;2022-10-16T04:13:04;35.30;;;33.40;;
37877;SDS011;23715;53.652;8.516;2022-10-16T04:18:05;35.50;;;33.40;;
37877;SDS011;23715;53.652;8.516;2022-10-16T04:23:05;35.15;;;32.63;;
37877;SDS011;23715;53.652;8.516;2022-10-16T04:28:06;34.40;;;32.25;;
37877;SDS011;23715;53.652;8.516;2022-10-16T04:33:07;34.63;;;32.10;;
37877;SDS011;23715;53.652;8.516;2022-10-16T04:38:08;34.70;;;32.60;;
37877;SDS011;23715;53.652;8.516;2022-10-16T04:43:09;33.60;;;31.12;;
37877;SDS011;23715;53.652;8.516;2022-10-16T04:48:09;33.98;;;31.52;;
37877;SDS011;23715;53.652;8.516;2022-10-16T04:58:09;32.23;;;29.80;;
37877;SDS011;23715;53.652;8.516;2022-10-16T05:03:10;35.08;;;32.98;;
37877;SDS011;23715;53.652;8.516;2022-10-16T05:08:12;34.05;;;32.15;;
37877;SDS011;23715;53.652;8.516;2022-10-16T05:13:14;34.13;;;31.82;;
37877;SDS011;23715;53.652;8.516;2022-10-16T05:18:14;36.50;;;34.35;;
37877;SDS011;23715;53.652;8.516;2022-10-16T05:23:15;33.25;;;31.35;;
37877;SDS011;23715;53.652;8.516;2022-10-16T05:28:15;36.13;;;34.13;;
37877;SDS011;23715;53.652;8.516;2022-10-16T05:33:16;32.30;;;30.25;;
37877;SDS011;23715;53.652;8.516;2022-10-16T05:38:18;32.60;;;30.40;;
37877;SDS011;23715;53.652;8.516;2022-10-16T05:43:18;35.43;;;33.40;;
37877;SDS011;23715;53.652;8.516;2022-10-16T05:48:19;34.33;;;32.23;;
37877;SDS011;23715;53.652;8.516;2022-10-16T05:53:20;38.38;;;36.13;;
37877;SDS011;23715;53.652;8.516;2022-10-16T05:58:23;37.85;;;35.52;;
37877;SDS011;23715;53.652;8.516;2022-10-16T06:03:24;37.50;;;34.78;;
37877;SDS011;23715;53.652;8.516;2022-10-16T06:08:25;33.40;;;31.35;;
37877;SDS011;23715;53.652;8.516;2022-10-16T06:13:25;34.10;;;32.10;;
37877;SDS011;23715;53.652;8.516;2022-10-16T06:18:26;36.55;;;34.03;;
37877;SDS011;23715;53.652;8.516;2022-10-16T06:23:28;36.27;;;34.07;;
37877;SDS011;23715;53.652;8.516;2022-10-16T06:28:28;36.77;;;34.50;;
37877;SDS011;23715;53.652;8.516;2022-10-16T06:33:28;40.00;;;37.15;;
37877;SDS011;23715;53.652;8.516;2022-10-16T06:38:29;38.23;;;35.70;;
37877;SDS011;23715;53.652;8.516;2022-10-16T06:43:29;38.20;;;35.73;;
37877;SDS011;23715;53.652;8.516;2022-10-16T06:48:35;38.92;;;36.33;;
37877;SDS011;23715;53.652;8.516;2022-10-16T06:53:36;38.63;;;35.77;;
37877;SDS011;23715;53.652;8.516;2022-10-16T06:58:38;37.30;;;34.90;;
37877;SDS011;23715;53.652;8.516;2022-10-16T07:03:39;39.05;;;35.10;;
37877;SDS011;23715;53.652;8.516;2022-10-16T07:08:41;37.38;;;34.60;;
37877;SDS011;23715;53.652;8.516;2022-10-16T07:13:43;37.43;;;34.93;;
37877;SDS011;23715;53.652;8.516;2022-10-16T07:18:45;37.88;;;35.48;;
37877;SDS011;23715;53.652;8.516;2022-10-16T07:23:50;38.78;;;36.25;;
37877;SDS011;23715;53.652;8.516;2022-10-16T07:28:51;36.55;;;33.98;;
37877;SDS011;23715;53.652;8.516;2022-10-16T07:33:51;37.23;;;34.58;;
37877;SDS011;23715;53.652;8.516;2022-10-16T07:38:52;37.30;;;34.95;;
37877;SDS011;23715;53.652;8.516;2022-10-16T07:43:53;38.25;;;35.75;;
37877;SDS011;23715;53.652;8.516;2022-10-16T07:48:55;37.75;;;35.48;;
37877;SDS011;23715;53.652;8.516;2022-10-16T07:53:56;38.73;;;36.17;;
37877;SDS011;23715;53.652;8.516;2022-10-16T07:58:57;38.78;;;36.17;;
37877;SDS011;23715;53.652;8.516;2022-10-16T08:03:59;39.70;;;37.20;;
37877;SDS011;23715;53.652;8.516;2022-10-16T08:08:59;40.05;;;37.40;;
37877;SDS011;23715;53.652;8.516;2022-10-16T08:13:59;40.43;;;37.70;;
37877;SDS011;23715;53.652;8.516;2022-10-16T08:19:00;40.20;;;37.55;;
37877;SDS011;23715;53.652;8.516;2022-10-16T08:24:00;40.50;;;37.80;;
37877;SDS011;23715;53.652;8.516;2022-10-16T08:29:01;40.70;;;38.17;;
37877;SDS011;23715;53.652;8.516;2022-10-16T08:34:01;40.73;;;38.23;;
37877;SDS011;23715;53.652;8.516;2022-10-16T08:44:07;36.93;;;34.73;;
37877;SDS011;23715;53.652;8.516;2022-10-16T08:49:25;35.25;;;32.85;;
37877;SDS011;23715;53.652;8.516;2022-10-16T08:54:36;35.65;;;33.30;;
37877;SDS011;23715;53.652;8.516;2022-10-16T08:59:40;34.15;;;31.95;;
37877;SDS011;23715;53.652;8.516;2022-10-16T09:04:54;36.08;;;33.53;;
37877;SDS011;23715;53.652;8.516;2022-10-16T09:15:17;33.45;;;31.12;;
37877;SDS011;23715;53.652;8.516;2022-10-16T09:20:44;30.08;;;27.90;;
37877;SDS011;23715;53.652;8.516;2022-10-16T09:25:50;33.48;;;31.35;;
37877;SDS011;23715;53.652;8.516;2022-10-16T09:30:52;33.28;;;30.82;;
37877;SDS011;23715;53.652;8.516;2022-10-16T09:35:53;29.50;;;27.37;;
37877;SDS011;23715;53.652;8.516;2022-10-16T09:40:57;30.10;;;28.07;;
37877;SDS011;23715;53.652;8.516;2022-10-16T09:46:00;29.02;;;27.15;;
37877;SDS011;23715;53.652;8.516;2022-10-16T09:51:06;29.00;;;27.40;;
37877;SDS011;23715;53.652;8.516;2022-10-16T09:56:09;29.57;;;27.75;;
37877;SDS011;23715;53.652;8.516;2022-10-16T10:01:12;33.88;;;31.73;;
37877;SDS011;23715;53.652;8.516;2022-10-16T10:06:28;31.07;;;29.07;;
37877;SDS011;23715;53.652;8.516;2022-10-16T10:16:44;31.37;;;29.48;;
37877;SDS011;23715;53.652;8.516;2022-10-16T10:26:57;34.13;;;32.13;;
37877;SDS011;23715;53.652;8.516;2022-10-16T10:31:56;28.75;;;26.80;;
37877;SDS011;23715;53.652;8.516;2022-10-16T10:37:00;29.63;;;27.82;;
37877;SDS011;23715;53.652;8.516;2022-10-16T10:42:03;28.50;;;26.30;;
37877;SDS011;23715;53.652;8.516;2022-10-16T11:03:02;29.72;;;27.32;;
37877;SDS011;23715;53.652;8.516;2022-10-16T11:08:06;24.98;;;23.20;;
37877;SDS011;23715;53.652;8.516;2022-10-16T11:13:09;26.62;;;24.65;;
37877;SDS011;23715;53.652;8.516;2022-10-16T11:18:24;26.87;;;24.37;;
37877;SDS011;23715;53.652;8.516;2022-10-16T11:23:35;26.80;;;24.70;;
37877;SDS011;23715;53.652;8.516;2022-10-16T11:28:41;26.52;;;24.63;;
37877;SDS011;23715;53.652;8.516;2022-10-16T11:33:39;26.75;;;24.75;;
37877;SDS011;23715;53.652;8.516;2022-10-16T11:39:31;26.42;;;24.05;;
37877;SDS011;23715;53.652;8.516;2022-10-16T11:44:33;24.43;;;22.57;;
37877;SDS011;23715;53.652;8.516;2022-10-16T11:49:39;24.67;;;22.67;;
37877;SDS011;23715;53.652;8.516;2022-10-16T12:10:31;26.95;;;24.95;;
37877;SDS011;23715;53.652;8.516;2022-10-16T12:15:33;27.80;;;25.37;;
37877;SDS011;23715;53.652;8.516;2022-10-16T12:20:34;27.07;;;25.00;;
37877;SDS011;23715;53.652;8.516;2022-10-16T12:25:39;26.82;;;24.98;;
37877;SDS011;23715;53.652;8.516;2022-10-16T12:30:51;26.70;;;24.07;;
37877;SDS011;23715;53.652;8.516;2022-10-16T12:35:45;24.43;;;22.10;;
37877;SDS011;23715;53.652;8.516;2022-10-16T12:41:08;24.05;;;22.30;;
37877;SDS011;23715;53.652;8.516;2022-10-16T12:51:12;21.97;;;20.02;;
37877;SDS011;23715;53.652;8.516;2022-10-16T13:01:40;21.87;;;19.90;;
37877;SDS011;23715;53.652;8.516;2022-10-16T13:12:15;20.77;;;18.90;;
37877;SDS011;23715;53.652;8.516;2022-10-16T13:17:23;20.00;;;18.23;;
37877;SDS011;23715;53.652;8.516;2022-10-16T13:32:58;20.30;;;18.50;;
37877;SDS011;23715;53.652;8.516;2022-10-16T13:38:17;19.23;;;17.37;;
37877;SDS011;23715;53.652;8.516;2022-10-16T13:43:20;20.57;;;18.92;;
37877;SDS011;23715;53.652;8.516;2022-10-16T13:48:25;23.02;;;20.25;;
37877;SDS011;23715;53.652;8.516;2022-10-16T13:53:26;20.45;;;18.85;;
37877;SDS011;23715;53.652;8.516;2022-10-16T13:58:29;19.73;;;18.05;;
37877;SDS011;23715;53.652;8.516;2022-10-16T14:08:29;19.82;;;17.23;;
37877;SDS011;23715;53.652;8.516;2022-10-16T14:18:39;22.52;;;18.12;;
37877;SDS011;23715;53.652;8.516;2022-10-16T14:23:41;17.67;;;16.00;;
37877;SDS011;23715;53.652;8.516;2022-10-16T14:28:42;19.00;;;17.10;;
37877;SDS011;23715;53.652;8.516;2022-10-16T14:33:43;20.60;;;17.12;;
37877;SDS011;23715;53.652;8.516;2022-10-16T14:39:03;19.27;;;17.60;;
37877;SDS011;23715;53.652;8.516;2022-10-16T14:44:05;18.37;;;16.77;;
37877;SDS011;23715;53.652;8.516;2022-10-16T14:54:14;16.97;;;15.43;;
37877;SDS011;23715;53.652;8.516;2022-10-16T14:59:27;17.95;;;16.45;;
37877;SDS011;23715;53.652;8.516;2022-10-16T15:04:28;18.12;;;16.37;;
37877;SDS011;23715;53.652;8.516;2022-10-16T15:14:29;21.23;;;16.33;;
37877;SDS011;23715;53.652;8.516;2022-10-16T15:24:29;17.50;;;15.68;;
37877;SDS011;23715;53.652;8.516;2022-10-16T15:29:30;17.10;;;15.75;;
37877;SDS011;23715;53.652;8.516;2022-10-16T15:34:30;17.82;;;16.00;;
37877;SDS011;23715;53.652;8.516;2022-10-16T15:39:31;17.67;;;15.88;;
37877;SDS011;23715;53.652;8.516;2022-10-16T15:44:32;16.57;;;15.10;;
37877;SDS011;23715;53.652;8.516;2022-10-16T15:49:32;19.82;;;15.98;;
37877;SDS011;23715;53.652;8.516;2022-10-16T15:54:33;17.87;;;16.20;;
37877;SDS011;23715;53.652;8.516;2022-10-16T15:59:33;16.77;;;15.20;;
37877;SDS011;23715;53.652;8.516;2022-10-16T16:04:34;19.87;;;14.25;;
37877;SDS011;23715;53.652;8.516;2022-10-16T16:09:36;14.60;;;13.20;;
37877;SDS011;23715;53.652;8.516;2022-10-16T16:19:36;15.83;;;14.73;;
37877;SDS011;23715;53.652;8.516;2022-10-16T16:24:37;18.75;;;16.77;;
37877;SDS011;23715;53.652;8.516;2022-10-16T16:29:37;24.77;;;22.35;;
37877;SDS011;23715;53.652;8.516;2022-10-16T16:39:37;24.40;;;19.87;;
37877;SDS011;23715;53.652;8.516;2022-10-16T16:44:37;22.17;;;20.20;;
37877;SDS011;23715;53.652;8.516;2022-10-16T16:49:38;23.00;;;20.90;;
37877;SDS011;23715;53.652;8.516;2022-10-16T16:54:38;23.27;;;21.17;;
37877;SDS011;23715;53.652;8.516;2022-10-16T16:59:39;23.27;;;21.43;;
37877;SDS011;23715;53.652;8.516;2022-10-16T17:04:40;23.10;;;21.35;;
37877;SDS011;23715;53.652;8.516;2022-10-16T17:09:40;22.98;;;20.68;;
37877;SDS011;23715;53.652;8.516;2022-10-16T17:14:41;22.55;;;20.37;;
37877;SDS011;23715;53.652;8.516;2022-10-16T17:19:42;25.08;;;22.67;;
37877;SDS011;23715;53.652;8.516;2022-10-16T17:29:42;25.80;;;23.43;;
37877;SDS011;23715;53.652;8.516;2022-10-16T17:34:42;35.80;;;25.05;;
37877;SDS011;23715;53.652;8.516;2022-10-16T17:39:42;30.45;;;27.40;;
37877;SDS011;23715;53.652;8.516;2022-10-16T17:44:43;27.52;;;24.90;;
37877;SDS011;23715;53.652;8.516;2022-10-16T17:49:43;26.97;;;24.25;;
37877;SDS011;23715;53.652;8.516;2022-10-16T17:54:44;26.50;;;24.02;;
37877;SDS011;23715;53.652;8.516;2022-10-16T17:59:45;27.00;;;24.65;;
37877;SDS011;23715;53.652;8.516;2022-10-16T18:04:45;23.40;;;21.05;;
37877;SDS011;23715;53.652;8.516;2022-10-16T18:14:45;21.00;;;19.55;;
37877;SDS011;23715;53.652;8.516;2022-10-16T18:19:46;21.07;;;19.20;;
37877;SDS011;23715;53.652;8.516;2022-10-16T18:29:46;19.62;;;18.07;;
37877;SDS011;23715;53.652;8.516;2022-10-16T18:39:46;20.55;;;19.05;;
37877;SDS011;23715;53.652;8.516;2022-10-16T18:44:47;21.55;;;19.40;;
37877;SDS011;23715;53.652;8.516;2022-10-16T18:49:48;23.42;;;20.95;;
37877;SDS011;23715;53.652;8.516;2022-10-16T18:54:49;21.77;;;19.65;;
37877;SDS011;23715;53.652;8.516;2022-10-16T18:59:51;22.35;;;20.20;;
37877;SDS011;23715;53.652;8.516;2022-10-16T19:04:52;30.80;;;27.80;;
37877;SDS011;23715;53.652;8.516;2022-10-16T19:09:52;24.45;;;22.17;;
37877;SDS011;23715;53.652;8.516;2022-10-16T19:14:53;25.00;;;22.67;;
37877;SDS011;23715;53.652;8.516;2022-10-16T19:19:54;25.68;;;23.47;;
37877;SDS011;23715;53.652;8.516;2022-10-16T19:25:01;23.73;;;21.70;;
37877;SDS011;23715;53.652;8.516;2022-10-16T19:29:56;24.30;;;21.62;;
37877;SDS011;23715;53.652;8.516;2022-10-16T19:34:57;25.65;;;23.20;;
37877;SDS011;23715;53.652;8.516;2022-10-16T19:39:57;24.27;;;22.02;;
37877;SDS011;23715;53.652;8.516;2022-10-16T19:44:57;25.35;;;23.02;;
37877;SDS011;23715;53.652;8.516;2022-10-16T19:49:57;25.60;;;23.15;;
37877;SDS011;23715;53.652;8.516;2022-10-16T19:54:58;24.90;;;23.05;;
37877;SDS011;23715;53.652;8.516;2022-10-16T19:59:58;25.12;;;23.35;;
37877;SDS011;23715;53.652;8.516;2022-10-16T20:04:59;25.37;;;23.15;;
37877;SDS011;23715;53.652;8.516;2022-10-16T20:09:59;24.32;;;22.07;;
37877;SDS011;23715;53.652;8.516;2022-10-16T20:15:00;23.77;;;22.10;;
37877;SDS011;23715;53.652;8.516;2022-10-16T20:20:01;24.55;;;22.40;;
37877;SDS011;23715;53.652;8.516;2022-10-16T20:30:06;23.65;;;21.73;;
37877;SDS011;23715;53.652;8.516;2022-10-16T20:35:11;24.60;;;22.60;;
37877;SDS011;23715;53.652;8.516;2022-10-16T20:40:12;26.80;;;24.00;;
37877;SDS011;23715;53.652;8.516;2022-10-16T20:45:12;24.57;;;22.73;;
37877;SDS011;23715;53.652;8.516;2022-10-16T20:50:12;29.82;;;26.57;;
37877;SDS011;23715;53.652;8.516;2022-10-16T20:55:13;25.92;;;23.67;;
37877;SDS011;23715;53.652;8.516;2022-10-16T21:00:15;24.35;;;22.25;;
37877;SDS011;23715;53.652;8.516;2022-10-16T21:10:15;25.12;;;23.02;;
37877;SDS011;23715;53.652;8.516;2022-10-16T21:15:17;25.55;;;23.30;;
37877;SDS011;23715;53.652;8.516;2022-10-16T21:25:17;24.40;;;22.53;;
37877;SDS011;23715;53.652;8.516;2022-10-16T21:30:17;26.17;;;24.20;;
37877;SDS011;23715;53.652;8.516;2022-10-16T21:35:17;26.45;;;23.85;;
37877;SDS011;23715;53.652;8.516;2022-10-16T21:40:18;27.80;;;25.68;;
37877;SDS011;23715;53.652;8.516;2022-10-16T21:45:18;27.13;;;24.72;;
37877;SDS011;23715;53.652;8.516;2022-10-16T21:50:18;26.75;;;24.67;;
37877;SDS011;23715;53.652;8.516;2022-10-16T21:55:19;27.77;;;25.47;;
37877;SDS011;23715;53.652;8.516;2022-10-16T22:00:19;27.15;;;25.10;;
37877;SDS011;23715;53.652;8.516;2022-10-16T22:05:19;27.55;;;25.32;;
37877;SDS011;23715;53.652;8.516;2022-10-16T22:10:20;26.82;;;24.45;;
37877;SDS011;23715;53.652;8.516;2022-10-16T22:15:20;26.35;;;24.35;;
37877;SDS011;23715;53.652;8.516;2022-10-16T22:20:20;26.40;;;24.30;;
37877;SDS011;23715;53.652;8.516;2022-10-16T22:25:21;24.77;;;22.65;;
37877;SDS011;23715;53.652;8.516;2022-10-16T22:30:21;25.40;;;23.67;;
37877;SDS011;23715;53.652;8.516;2022-10-16T22:35:21;26.93;;;24.85;;
37877;SDS011;23715;53.652;8.516;2022-10-16T22:40:22;27.50;;;25.30;;
37877;SDS011;23715;53.652;8.516;2022-10-16T22:45:22;27.73;;;25.52;;
37877;SDS011;23715;53.652;8.516;2022-10-16T22:50:22;28.27;;;25.92;;
37877;SDS011;23715;53.652;8.516;2022-10-16T22:55:23;26.68;;;24.77;;
37877;SDS011;23715;53.652;8.516;2022-10-16T23:05:23;27.87;;;25.62;;
37877;SDS011;23715;53.652;8.516;2022-10-16T23:15:24;32.07;;;25.97;;
37877;SDS011;23715;53.652;8.516;2022-10-16T23:20:25;28.17;;;25.95;;
37877;SDS011;23715;53.652;8.516;2022-10-16T23:25:25;27.60;;;25.43;;
37877;SDS011;23715;53.652;8.516;2022-10-16T23:30:26;29.23;;;26.95;;
37877;SDS011;23715;53.652;8.516;2022-10-16T23:35:26;29.90;;;27.15;;
37877;SDS011;23715;53.652;8.516;2022-10-16T23:40:27;30.85;;;28.12;;
37877;SDS011;23715;53.652;8.516;2022-10-16T23:45:27;29.92;;;27.55;;
37877;SDS011;23715;53.652;8.516;2022-10-16T23:50:27;29.75;;;27.27;;
37877;SDS011;23715;53.652;8.516;2022-10-16T23:55:28;29.33;;;26.97;;
